Time;durP1;ratioP1;P1;durP2;ratioP2;P2;SDS_P1;SDS_P2;PMS_P1;PMS_P2;Temp;Humidity;BMP_temperature;BMP_pressure;BME280_temperature;BME280_humidity;BME280_pressure;Samples;Min_cycle;Max_cycle;Signal;HPM_P1;HPM_P2
2021/09/08 00:00:47;;;;;;;17.38;10.70;;;15.80;99.90;;;;;;7409757;19;20017;-85
2021/09/08 00:03:20;;;;;;;18.55;11.38;;;15.80;99.90;;;;;;7409727;19;20010;-85
2021/09/08 00:05:51;;;;;;;19.27;10.85;;;15.80;99.90;;;;;;7403140;19;20023;-85
2021/09/08 00:08:20;;;;;;;20.23;10.95;;;15.80;99.90;;;;;;7402549;19;20010;-84
2021/09/08 00:10:51;;;;;;;20.00;10.68;;;15.70;99.90;;;;;;7401952;19;20353;-84
2021/09/08 00:13:21;;;;;;;16.77;10.60;;;15.70;99.90;;;;;;7401893;19;20018;-83
2021/09/08 00:15:50;;;;;;;17.77;10.90;;;15.70;99.90;;;;;;7401580;19;20052;-85
2021/09/08 00:18:24;;;;;;;18.45;10.57;;;15.70;99.90;;;;;;7402889;19;20108;-85
2021/09/08 00:20:54;;;;;;;17.85;11.23;;;15.60;99.90;;;;;;7401817;19;20026;-86
2021/09/08 00:23:26;;;;;;;16.52;11.05;;;15.60;99.90;;;;;;7401346;19;20049;-86
2021/09/08 00:25:55;;;;;;;17.33;10.90;;;15.60;99.90;;;;;;7401440;19;20396;-85
2021/09/08 00:28:37;;;;;;;17.08;10.68;;;15.60;99.90;;;;;;7401482;19;20180;-84
2021/09/08 00:31:09;;;;;;;16.05;10.82;;;15.50;99.90;;;;;;7400931;19;20024;-85
2021/09/08 00:33:41;;;;;;;17.65;10.30;;;15.50;99.90;;;;;;7400809;19;20372;-85
2021/09/08 00:36:12;;;;;;;19.15;11.13;;;15.50;99.90;;;;;;7404968;19;20006;-85
2021/09/08 00:38:44;;;;;;;16.35;9.88;;;15.40;99.90;;;;;;7415091;19;20014;-84
2021/09/08 00:41:14;;;;;;;20.45;10.88;;;15.40;99.90;;;;;;7413752;19;20014;-86
2021/09/08 00:43:43;;;;;;;20.63;11.75;;;15.40;99.90;;;;;;7401432;19;20029;-85
2021/09/08 00:46:16;;;;;;;18.40;10.30;;;15.40;99.90;;;;;;7402019;19;20014;-86
2021/09/08 00:48:52;;;;;;;16.02;10.35;;;15.40;99.90;;;;;;7402551;19;20452;-87
2021/09/08 00:51:22;;;;;;;19.83;10.73;;;15.40;99.90;;;;;;7400680;19;20017;-86
2021/09/08 00:53:54;;;;;;;15.60;10.73;;;15.40;99.90;;;;;;7402084;19;20007;-86
2021/09/08 00:56:28;;;;;;;20.13;11.02;;;15.30;99.90;;;;;;7401611;19;20050;-85
2021/09/08 00:58:58;;;;;;;17.75;10.88;;;15.40;99.90;;;;;;7400979;19;20015;-84
2021/09/08 01:01:27;;;;;;;16.63;10.38;;;15.30;99.90;;;;;;7400372;19;20302;-85
2021/09/08 01:04:00;;;;;;;17.10;10.65;;;15.30;99.90;;;;;;7400905;19;20444;-84
2021/09/08 01:06:32;;;;;;;17.73;10.93;;;15.30;99.90;;;;;;7401805;19;20228;-85
2021/09/08 01:09:07;;;;;;;20.23;10.70;;;15.20;99.90;;;;;;7405665;19;20014;-87
2021/09/08 01:11:36;;;;;;;19.73;12.27;;;15.20;99.90;;;;;;7402583;19;20011;-86
2021/09/08 01:14:08;;;;;;;20.90;11.82;;;15.10;99.90;;;;;;7407183;19;20014;-85
2021/09/08 01:16:37;;;;;;;19.40;12.00;;;15.10;99.90;;;;;;7408428;19;20006;-86
2021/09/08 01:19:12;;;;;;;18.95;11.80;;;15.10;99.90;;;;;;7409827;19;20321;-85
2021/09/08 01:21:41;;;;;;;18.60;11.35;;;15.10;99.90;;;;;;7401783;19;20433;-85
2021/09/08 01:24:14;;;;;;;19.48;11.40;;;15.00;99.90;;;;;;7404926;19;20010;-85
2021/09/08 01:26:45;;;;;;;20.02;11.70;;;15.10;99.90;;;;;;7406636;19;20043;-85
2021/09/08 01:29:18;;;;;;;19.58;11.38;;;15.00;99.90;;;;;;7400943;19;20010;-86
2021/09/08 01:31:57;;;;;;;18.08;11.18;;;15.00;99.90;;;;;;7399086;19;20014;-85
2021/09/08 01:34:26;;;;;;;18.42;11.32;;;15.00;99.90;;;;;;7399325;19;20286;-85
2021/09/08 01:36:58;;;;;;;19.38;10.73;;;15.00;99.90;;;;;;7401222;19;20091;-85
2021/09/08 01:39:31;;;;;;;21.10;12.18;;;14.90;99.90;;;;;;7398325;19;20002;-85
2021/09/08 01:42:00;;;;;;;19.35;11.63;;;14.90;99.90;;;;;;7400756;19;20433;-85
2021/09/08 01:44:29;;;;;;;17.70;11.18;;;14.90;99.90;;;;;;7398886;19;20014;-85
2021/09/08 01:47:01;;;;;;;18.10;11.40;;;14.90;99.90;;;;;;7399365;19;20006;-85
2021/09/08 01:49:35;;;;;;;21.05;12.35;;;14.80;99.90;;;;;;7397102;19;20486;-85
2021/09/08 01:52:05;;;;;;;17.65;11.70;;;14.90;99.90;;;;;;7404321;19;20017;-84
2021/09/08 01:54:37;;;;;;;18.83;10.77;;;14.80;99.90;;;;;;7413141;19;20003;-86
2021/09/08 01:57:07;;;;;;;18.42;11.40;;;14.80;99.90;;;;;;7402270;19;20014;-85
2021/09/08 01:59:36;;;;;;;18.08;11.07;;;14.80;99.90;;;;;;7398437;19;20010;-85
2021/09/08 02:02:05;;;;;;;15.27;10.40;;;14.80;99.90;;;;;;7401119;19;20023;-85
2021/09/08 02:04:35;;;;;;;18.98;10.93;;;14.70;99.90;;;;;;7398729;19;20011;-85
2021/09/08 02:07:04;;;;;;;20.67;11.40;;;14.70;99.90;;;;;;7401226;19;20006;-85
2021/09/08 02:09:39;;;;;;;17.83;11.60;;;14.60;99.90;;;;;;7400990;19;20022;-84
2021/09/08 02:12:09;;;;;;;18.58;11.88;;;14.60;99.90;;;;;;7398544;19;20014;-86
2021/09/08 02:14:39;;;;;;;17.65;11.73;;;14.60;99.90;;;;;;7397606;19;20022;-85
2021/09/08 02:17:08;;;;;;;17.17;11.32;;;14.60;99.90;;;;;;7398488;19;20656;-86
2021/09/08 02:19:37;;;;;;;19.65;11.52;;;14.60;99.90;;;;;;7398052;19;20018;-86
2021/09/08 02:22:09;;;;;;;21.67;12.30;;;14.60;99.90;;;;;;7398708;19;20325;-86
2021/09/08 02:24:41;;;;;;;22.58;12.05;;;14.60;99.90;;;;;;7398907;19;20018;-86
2021/09/08 02:27:13;;;;;;;21.13;12.35;;;14.60;99.90;;;;;;7397720;19;20014;-85
2021/09/08 02:29:42;;;;;;;19.38;11.45;;;14.50;99.90;;;;;;7397742;19;20021;-87
2021/09/08 02:32:12;;;;;;;21.50;10.63;;;14.50;99.90;;;;;;7399376;19;20318;-87
2021/09/08 02:34:43;;;;;;;20.13;11.15;;;14.50;99.90;;;;;;7398436;19;20484;-87
2021/09/08 02:37:12;;;;;;;19.83;12.38;;;14.50;99.90;;;;;;7399800;19;20035;-87
2021/09/08 02:39:45;;;;;;;17.98;10.85;;;14.40;99.90;;;;;;7398475;19;20022;-86
2021/09/08 02:42:18;;;;;;;17.85;11.00;;;14.40;99.90;;;;;;7398479;19;20468;-85
2021/09/08 02:44:47;;;;;;;22.70;14.88;;;14.30;99.90;;;;;;7397886;19;20321;-86
2021/09/08 02:47:16;;;;;;;21.05;12.73;;;14.20;99.90;;;;;;7397469;19;20018;-86
2021/09/08 02:49:46;;;;;;;23.33;12.43;;;14.20;99.90;;;;;;7399000;19;20021;-87
2021/09/08 02:52:15;;;;;;;27.80;15.63;;;14.20;99.90;;;;;;7398325;19;20007;-87
2021/09/08 02:54:47;;;;;;;19.33;12.18;;;14.10;99.90;;;;;;7413485;19;20035;-86
2021/09/08 02:57:17;;;;;;;61.67;29.17;;;14.20;99.90;;;;;;7415784;19;20013;-88
2021/09/08 02:59:48;;;;;;;20.10;12.85;;;14.10;99.90;;;;;;7425626;19;20006;-86
2021/09/08 03:02:17;;;;;;;20.95;12.27;;;14.10;99.90;;;;;;7425686;19;20055;-86
2021/09/08 03:04:47;;;;;;;18.88;12.35;;;14.10;99.90;;;;;;7423098;19;20042;-87
2021/09/08 03:07:18;;;;;;;22.50;12.65;;;14.10;99.90;;;;;;7423770;19;20019;-83
2021/09/08 03:09:50;;;;;;;19.35;12.68;;;14.00;99.90;;;;;;7425757;19;20049;-86
2021/09/08 03:12:21;;;;;;;25.83;12.90;;;14.00;99.90;;;;;;7426261;19;20036;-86
2021/09/08 03:14:51;;;;;;;21.40;12.32;;;14.00;99.90;;;;;;7414944;19;20006;-86
2021/09/08 03:17:20;;;;;;;20.73;13.05;;;14.00;99.90;;;;;;7413878;19;20014;-86
2021/09/08 03:19:49;;;;;;;20.42;12.98;;;14.00;99.90;;;;;;7407660;19;20425;-86
2021/09/08 03:22:19;;;;;;;22.58;13.70;;;14.00;99.90;;;;;;7403833;19;20045;-88
2021/09/08 03:24:50;;;;;;;21.25;12.90;;;13.90;99.90;;;;;;7405079;19;20282;-87
2021/09/08 03:27:20;;;;;;;21.35;12.45;;;14.00;99.90;;;;;;7398505;19;20007;-87
2021/09/08 03:29:49;;;;;;;17.90;12.27;;;14.00;99.90;;;;;;7398733;19;20014;-86
2021/09/08 03:32:18;;;;;;;18.85;11.20;;;14.00;99.90;;;;;;7396614;19;20006;-87
2021/09/08 03:34:48;;;;;;;19.08;11.00;;;14.00;99.90;;;;;;7396201;19;20015;-87
2021/09/08 03:37:17;;;;;;;17.88;11.40;;;13.90;99.90;;;;;;7398946;19;20019;-86
2021/09/08 03:39:46;;;;;;;18.95;12.15;;;13.90;99.90;;;;;;7400559;19;20127;-87
2021/09/08 03:42:18;;;;;;;20.15;11.68;;;13.80;99.90;;;;;;7403651;19;20302;-87
2021/09/08 03:44:48;;;;;;;20.38;10.75;;;13.80;99.90;;;;;;7411604;19;20007;-86
2021/09/08 03:47:17;;;;;;;18.95;11.45;;;13.80;99.90;;;;;;7405147;19;20010;-86
2021/09/08 03:49:47;;;;;;;20.17;11.65;;;13.70;99.90;;;;;;7403121;19;20436;-87
2021/09/08 03:52:16;;;;;;;15.88;10.63;;;13.70;99.90;;;;;;7403004;19;20017;-87
2021/09/08 03:54:48;;;;;;;16.33;10.90;;;13.70;99.90;;;;;;7405479;19;20018;-86
2021/09/08 03:57:20;;;;;;;17.20;10.77;;;13.60;99.90;;;;;;7404511;19;20074;-88
2021/09/08 03:59:49;;;;;;;19.65;10.93;;;13.60;99.90;;;;;;7403279;19;20314;-87
2021/09/08 04:02:18;;;;;;;18.13;10.35;;;13.60;99.90;;;;;;7402626;19;20010;-87
2021/09/08 04:04:49;;;;;;;18.08;11.10;;;13.60;99.90;;;;;;7402561;19;20003;-87
2021/09/08 04:07:18;;;;;;;19.77;11.13;;;13.60;99.90;;;;;;7402049;19;20015;-87
2021/09/08 04:09:48;;;;;;;20.20;10.95;;;13.50;99.90;;;;;;7402241;19;20021;-87
2021/09/08 04:12:20;;;;;;;20.95;10.52;;;13.50;99.90;;;;;;7401576;19;20018;-87
2021/09/08 04:14:49;;;;;;;19.55;12.45;;;13.50;99.90;;;;;;7400830;19;20339;-86
2021/09/08 04:17:18;;;;;;;21.95;11.77;;;13.50;99.90;;;;;;7401992;19;20018;-87
2021/09/08 04:19:48;;;;;;;19.00;11.65;;;13.40;99.90;;;;;;7409054;19;20014;-87
2021/09/08 04:22:17;;;;;;;21.67;12.20;;;13.50;99.90;;;;;;7408377;19;20433;-87
2021/09/08 04:24:48;;;;;;;22.75;13.65;;;13.40;99.90;;;;;;7402381;19;20453;-87
2021/09/08 04:27:23;;;;;;;20.75;12.80;;;13.50;99.90;;;;;;7404302;19;20424;-86
2021/09/08 04:29:53;;;;;;;22.70;13.52;;;13.50;99.90;;;;;;7402808;19;20456;-87
2021/09/08 04:32:22;;;;;;;25.10;14.40;;;13.50;99.90;;;;;;7403569;19;20029;-87
2021/09/08 04:34:53;;;;;;;22.33;12.45;;;13.50;99.90;;;;;;7401924;19;20546;-87
2021/09/08 04:37:23;;;;;;;21.55;12.88;;;13.60;99.90;;;;;;7402849;19;20127;-86
2021/09/08 04:39:52;;;;;;;22.50;11.95;;;13.50;99.90;;;;;;7400301;19;20018;-87
2021/09/08 04:42:24;;;;;;;20.33;12.18;;;13.50;99.90;;;;;;7404768;19;20007;-87
2021/09/08 04:44:53;;;;;;;20.15;12.75;;;13.50;99.90;;;;;;7402250;19;20015;-87
2021/09/08 04:47:22;;;;;;;25.88;13.45;;;13.50;99.90;;;;;;7400930;19;20321;-87
2021/09/08 04:49:52;;;;;;;23.52;13.10;;;13.50;99.90;;;;;;7402938;19;20018;-87
2021/09/08 04:52:21;;;;;;;19.80;12.48;;;13.50;99.90;;;;;;7400954;19;20011;-86
2021/09/08 04:54:53;;;;;;;28.65;14.13;;;13.50;99.90;;;;;;7402274;19;20011;-86
2021/09/08 04:57:25;;;;;;;24.42;12.38;;;13.50;99.90;;;;;;7402161;19;20019;-86
2021/09/08 04:59:54;;;;;;;21.92;12.45;;;13.60;99.90;;;;;;7399832;19;20006;-87
2021/09/08 05:02:26;;;;;;;21.20;11.65;;;13.60;99.90;;;;;;7400408;19;20011;-88
2021/09/08 05:04:55;;;;;;;21.67;11.95;;;13.50;99.90;;;;;;7400806;19;20015;-86
2021/09/08 05:07:26;;;;;;;21.67;12.38;;;13.50;99.90;;;;;;7402609;19;20014;-88
2021/09/08 05:09:55;;;;;;;22.17;12.93;;;13.60;99.90;;;;;;7401433;19;20094;-88
2021/09/08 05:12:29;;;;;;;21.10;11.43;;;13.60;99.90;;;;;;7402921;19;20398;-86
2021/09/08 05:14:58;;;;;;;20.20;11.70;;;13.70;99.90;;;;;;7400474;19;20476;-87
2021/09/08 05:17:28;;;;;;;26.38;11.73;;;13.70;99.90;;;;;;7400151;19;20014;-87
2021/09/08 05:19:58;;;;;;;20.60;12.93;;;13.70;99.90;;;;;;7399704;19;20398;-87
2021/09/08 05:22:30;;;;;;;22.80;11.60;;;13.80;99.90;;;;;;7399724;19;20074;-88
2021/09/08 05:25:05;;;;;;;20.33;11.43;;;13.80;99.90;;;;;;7399592;19;20443;-87
2021/09/08 05:27:40;;;;;;;19.42;11.43;;;13.90;99.90;;;;;;7399954;19;20022;-87
2021/09/08 05:30:12;;;;;;;25.60;11.15;;;13.90;99.90;;;;;;7399590;19;20010;-88
2021/09/08 05:32:41;;;;;;;21.35;11.45;;;14.00;99.90;;;;;;7407837;19;20028;-86
2021/09/08 05:35:14;;;;;;;16.83;11.13;;;14.00;99.90;;;;;;7412129;19;20006;-88
2021/09/08 05:37:46;;;;;;;25.60;11.95;;;14.10;99.90;;;;;;7402323;19;20487;-87
2021/09/08 05:40:18;;;;;;;20.45;11.75;;;14.10;99.90;;;;;;7399693;19;20017;-86
2021/09/08 05:42:52;;;;;;;20.42;11.90;;;14.20;99.90;;;;;;7402649;19;20011;-87
2021/09/08 05:45:23;;;;;;;18.80;11.15;;;14.40;99.90;;;;;;7404913;19;20021;-86
2021/09/08 05:47:53;;;;;;;25.77;13.90;;;14.50;99.90;;;;;;7407953;19;20018;-86
2021/09/08 05:50:23;;;;;;;18.58;11.90;;;14.50;99.90;;;;;;7405536;19;20054;-85
2021/09/08 05:52:52;;;;;;;16.67;12.05;;;14.60;99.90;;;;;;7405281;19;20470;-85
2021/09/08 05:55:24;;;;;;;24.75;14.35;;;14.70;99.90;;;;;;7399864;19;20021;-85
2021/09/08 05:57:56;;;;;;;26.33;14.30;;;14.80;99.90;;;;;;7399879;19;20010;-85
2021/09/08 06:00:25;;;;;;;22.20;12.52;;;14.90;99.90;;;;;;7396737;19;20029;-85
2021/09/08 06:02:57;;;;;;;20.00;12.32;;;15.00;99.90;;;;;;7392510;19;20010;-85
2021/09/08 06:05:28;;;;;;;21.88;12.60;;;15.10;99.90;;;;;;7396077;19;20432;-85
2021/09/08 06:08:00;;;;;;;24.98;12.18;;;15.20;99.90;;;;;;7396672;19;20006;-85
2021/09/08 06:10:30;;;;;;;20.77;11.45;;;15.50;99.90;;;;;;7401929;19;20349;-84
2021/09/08 06:13:04;;;;;;;16.85;11.23;;;15.80;99.90;;;;;;7401569;19;20421;-86
2021/09/08 06:15:35;;;;;;;20.67;12.95;;;15.90;99.90;;;;;;7397191;19;20011;-85
2021/09/08 06:18:05;;;;;;;31.55;16.17;;;15.90;99.90;;;;;;7399606;19;20318;-85
2021/09/08 06:20:35;;;;;;;22.50;12.27;;;16.20;99.90;;;;;;7398543;19;20022;-85
2021/09/08 06:23:04;;;;;;;19.48;11.45;;;16.30;99.90;;;;;;7397027;19;20432;-85
2021/09/08 06:25:36;;;;;;;19.75;11.45;;;16.60;99.90;;;;;;7397195;19;20026;-84
2021/09/08 06:28:09;;;;;;;22.23;11.75;;;16.70;99.90;;;;;;7397535;19;20006;-85
2021/09/08 06:30:38;;;;;;;17.42;11.30;;;16.70;99.90;;;;;;7396688;19;20010;-84
2021/09/08 06:33:07;;;;;;;23.40;12.00;;;16.50;99.90;;;;;;7397599;19;20013;-85
2021/09/08 06:35:36;;;;;;;23.05;11.45;;;16.50;99.90;;;;;;7397512;19;20007;-85
2021/09/08 06:38:06;;;;;;;17.88;10.65;;;16.50;99.90;;;;;;7396922;19;20018;-84
2021/09/08 06:40:38;;;;;;;19.30;12.07;;;16.50;99.90;;;;;;7398182;19;20314;-84
2021/09/08 06:43:10;;;;;;;20.67;12.18;;;16.50;99.90;;;;;;7399612;19;20013;-84
2021/09/08 06:45:39;;;;;;;17.73;10.65;;;16.50;99.90;;;;;;7401397;19;20019;-83
2021/09/08 06:48:11;;;;;;;22.40;11.60;;;16.60;99.90;;;;;;7406147;19;20003;-84
2021/09/08 06:50:40;;;;;;;19.30;11.60;;;16.60;99.90;;;;;;7423564;19;20042;-83
2021/09/08 06:53:10;;;;;;;17.52;10.80;;;16.70;99.90;;;;;;7426563;19;20019;-83
2021/09/08 06:55:39;;;;;;;18.30;11.13;;;16.70;99.90;;;;;;7414543;19;20081;-85
2021/09/08 06:58:11;;;;;;;21.20;12.02;;;16.80;99.90;;;;;;7427145;19;20027;-85
2021/09/08 07:00:41;;;;;;;21.83;10.80;;;16.90;99.90;;;;;;7423014;19;20559;-81
2021/09/08 07:03:10;;;;;;;22.45;12.15;;;17.00;99.90;;;;;;7425924;19;20014;-83
2021/09/08 07:05:42;;;;;;;18.63;11.40;;;17.10;99.90;;;;;;7426250;19;20009;-83
2021/09/08 07:08:14;;;;;;;19.30;11.40;;;17.10;99.90;;;;;;7405186;19;20375;-84
2021/09/08 07:10:44;;;;;;;16.27;11.20;;;17.20;99.90;;;;;;7397985;19;20046;-84
2021/09/08 07:13:18;;;;;;;16.92;11.40;;;17.30;99.90;;;;;;7395949;19;20007;-84
2021/09/08 07:15:49;;;;;;;19.13;11.30;;;17.40;99.90;;;;;;7401887;19;20073;-85
2021/09/08 07:18:19;;;;;;;21.52;10.77;;;17.50;99.90;;;;;;7405482;19;20082;-83
2021/09/08 07:20:48;;;;;;;20.35;11.32;;;17.60;99.90;;;;;;7402956;19;20014;-85
2021/09/08 07:23:18;;;;;;;18.10;10.50;;;17.70;99.90;;;;;;7404799;19;20016;-84
2021/09/08 07:25:47;;;;;;;24.17;11.90;;;17.80;99.90;;;;;;7404258;19;20018;-84
2021/09/08 07:28:19;;;;;;;16.63;11.05;;;17.90;99.90;;;;;;7402401;19;20021;-84
2021/09/08 07:30:53;;;;;;;18.63;10.82;;;17.90;99.90;;;;;;7403087;19;20018;-83
2021/09/08 07:33:22;;;;;;;15.77;10.52;;;18.00;99.90;;;;;;7402258;19;20006;-85
2021/09/08 07:35:52;;;;;;;20.00;11.48;;;18.10;99.90;;;;;;7402654;19;20015;-85
2021/09/08 07:38:24;;;;;;;22.00;11.35;;;18.20;99.90;;;;;;7403503;19;20010;-84
2021/09/08 07:40:55;;;;;;;18.13;10.43;;;18.30;99.90;;;;;;7402728;19;20014;-84
2021/09/08 07:43:27;;;;;;;19.15;10.43;;;18.40;99.90;;;;;;7403340;19;20015;-85
2021/09/08 07:45:58;;;;;;;16.55;10.82;;;18.40;99.90;;;;;;7403341;19;20011;-85
2021/09/08 07:48:28;;;;;;;20.08;11.50;;;18.50;99.90;;;;;;7401871;19;20041;-83
2021/09/08 07:50:59;;;;;;;20.38;10.85;;;18.60;99.90;;;;;;7402016;19;20021;-83
2021/09/08 07:53:29;;;;;;;20.20;11.88;;;18.60;99.90;;;;;;7401913;19;20045;-82
2021/09/08 07:55:58;;;;;;;20.80;10.93;;;18.70;99.90;;;;;;7404888;19;20090;-83
2021/09/08 07:58:30;;;;;;;22.42;12.02;;;18.80;99.90;;;;;;7406343;19;20070;-85
2021/09/08 08:00:59;;;;;;;18.95;11.77;;;18.90;99.90;;;;;;7402575;19;20038;-84
2021/09/08 08:03:29;;;;;;;19.50;11.23;;;18.90;99.90;;;;;;7402760;19;20014;-84
2021/09/08 08:06:00;;;;;;;23.13;11.75;;;19.00;99.90;;;;;;7403362;19;20011;-85
2021/09/08 08:08:31;;;;;;;22.13;11.00;;;19.20;99.90;;;;;;7409985;19;20305;-84
2021/09/08 08:11:03;;;;;;;16.95;10.73;;;19.20;99.90;;;;;;7409859;19;20049;-84
2021/09/08 08:13:35;;;;;;;17.13;10.57;;;19.30;99.90;;;;;;7400987;19;20070;-83
2021/09/08 08:16:07;;;;;;;23.98;11.90;;;19.40;99.90;;;;;;7402262;19;20013;-83
2021/09/08 08:18:39;;;;;;;19.48;11.48;;;19.50;99.90;;;;;;7401697;19;20026;-83
2021/09/08 08:21:13;;;;;;;17.48;11.30;;;19.60;99.90;;;;;;7402347;19;20278;-83
2021/09/08 08:23:42;;;;;;;20.35;12.20;;;19.70;99.90;;;;;;7402123;19;20017;-83
2021/09/08 08:26:18;;;;;;;18.17;11.65;;;19.90;99.90;;;;;;7398717;19;20006;-83
2021/09/08 08:28:52;;;;;;;18.77;11.60;;;20.00;99.90;;;;;;7401325;19;20074;-83
2021/09/08 08:31:21;;;;;;;21.17;12.43;;;20.10;99.90;;;;;;7402120;19;20082;-84
2021/09/08 08:33:51;;;;;;;19.88;12.48;;;20.20;99.90;;;;;;7409179;19;20022;-83
2021/09/08 08:36:23;;;;;;;21.90;12.10;;;20.20;99.90;;;;;;7403527;19;20105;-84
2021/09/08 08:38:55;;;;;;;19.27;10.90;;;20.30;99.90;;;;;;7401021;19;20015;-83
2021/09/08 08:41:27;;;;;;;18.23;10.57;;;20.30;99.80;;;;;;7399542;19;20425;-84
2021/09/08 08:43:59;;;;;;;17.67;10.65;;;20.40;99.80;;;;;;7403894;19;20010;-83
2021/09/08 08:46:29;;;;;;;20.67;9.98;;;20.60;99.70;;;;;;7400506;19;20022;-83
2021/09/08 08:48:58;;;;;;;22.17;10.50;;;20.60;99.50;;;;;;7401985;19;20011;-81
2021/09/08 08:51:28;;;;;;;18.48;10.45;;;20.70;98.90;;;;;;7402787;19;20018;-82
2021/09/08 08:53:57;;;;;;;20.17;10.45;;;20.80;98.80;;;;;;7400832;19;20014;-83
2021/09/08 08:56:29;;;;;;;16.88;9.75;;;20.90;98.40;;;;;;7400221;19;20002;-83
2021/09/08 08:59:04;;;;;;;18.55;10.15;;;21.00;98.20;;;;;;7401766;19;20015;-82
2021/09/08 09:01:36;;;;;;;19.83;10.30;;;21.00;97.50;;;;;;7404265;19;20039;-84
2021/09/08 09:04:08;;;;;;;25.95;14.00;;;21.10;97.50;;;;;;7399836;19;20053;-83
2021/09/08 09:06:43;;;;;;;14.10;9.05;;;21.20;97.40;;;;;;7400407;19;20014;-83
2021/09/08 09:09:14;;;;;;;17.25;9.70;;;21.30;97.20;;;;;;7410951;19;20002;-83
2021/09/08 09:11:51;;;;;;;22.33;9.95;;;21.40;97.10;;;;;;7404570;19;20025;-83
2021/09/08 09:14:23;;;;;;;18.55;10.35;;;21.50;96.80;;;;;;7400140;19;20010;-82
2021/09/08 09:16:57;;;;;;;18.80;10.10;;;21.50;96.50;;;;;;7401845;19;20025;-82
2021/09/08 09:19:29;;;;;;;15.05;9.57;;;21.60;96.40;;;;;;7403749;19;20037;-83
2021/09/08 09:21:58;;;;;;;16.88;9.43;;;21.70;96.30;;;;;;7402007;19;20022;-83
2021/09/08 09:24:30;;;;;;;17.33;10.02;;;21.80;95.90;;;;;;7400676;19;20010;-82
2021/09/08 09:27:04;;;;;;;16.00;9.48;;;21.90;95.00;;;;;;7400491;19;20093;-83
2021/09/08 09:29:44;;;;;;;19.30;10.20;;;21.90;94.80;;;;;;7399929;19;20017;-82
2021/09/08 09:32:15;;;;;;;15.48;9.25;;;22.10;94.60;;;;;;7398486;19;20014;-82
2021/09/08 09:34:46;;;;;;;17.70;10.23;;;22.20;94.30;;;;;;7398787;19;20006;-82
2021/09/08 09:37:16;;;;;;;17.13;10.32;;;22.30;93.80;;;;;;7396564;19;20018;-83
2021/09/08 09:39:46;;;;;;;16.30;9.90;;;22.40;93.40;;;;;;7397920;19;20010;-83
2021/09/08 09:42:18;;;;;;;17.85;10.10;;;22.60;93.30;;;;;;7398262;19;20110;-82
2021/09/08 09:44:50;;;;;;;14.02;9.27;;;22.90;92.40;;;;;;7400284;19;20014;-83
2021/09/08 09:47:29;;;;;;;16.00;10.15;;;23.20;91.70;;;;;;7400348;19;20018;-82
2021/09/08 09:50:00;;;;;;;14.57;8.85;;;23.70;91.10;;;;;;7397964;19;20015;-83
2021/09/08 09:52:30;;;;;;;14.05;8.88;;;24.30;90.10;;;;;;7397394;19;20018;-83
2021/09/08 09:54:59;;;;;;;14.20;9.00;;;24.90;87.70;;;;;;7401155;19;20437;-82
2021/09/08 09:57:30;;;;;;;16.08;9.50;;;25.40;85.30;;;;;;7397907;19;20007;-82
2021/09/08 10:00:02;;;;;;;13.20;8.65;;;25.90;82.30;;;;;;7398150;19;20013;-82
2021/09/08 10:02:44;;;;;;;14.18;8.02;;;26.40;80.00;;;;;;7398660;19;20014;-82
2021/09/08 10:05:16;;;;;;;12.38;7.57;;;26.90;77.20;;;;;;7399493;19;20019;-82
2021/09/08 10:07:45;;;;;;;15.68;7.95;;;27.40;75.60;;;;;;7397509;19;20010;-82
2021/09/08 10:10:19;;;;;;;12.43;8.05;;;27.90;74.40;;;;;;7397425;19;20014;-82
2021/09/08 10:12:54;;;;;;;13.57;9.45;;;28.30;71.90;;;;;;7400366;19;20014;-83
2021/09/08 10:15:30;;;;;;;12.18;7.53;;;28.90;68.80;;;;;;7399062;19;20022;-82
2021/09/08 10:18:09;;;;;;;12.48;7.78;;;29.30;66.60;;;;;;7406128;19;20003;-81
2021/09/08 10:20:39;;;;;;;13.25;8.57;;;29.50;65.80;;;;;;7405784;19;20428;-83
2021/09/08 10:23:11;;;;;;;11.02;7.70;;;30.00;63.10;;;;;;7398545;19;20014;-82
2021/09/08 10:25:47;;;;;;;14.07;7.90;;;30.30;61.80;;;;;;7408417;19;20011;-80
2021/09/08 10:28:18;;;;;;;11.02;8.07;;;30.80;60.00;;;;;;7405665;19;20017;-82
2021/09/08 10:30:50;;;;;;;17.00;8.07;;;31.10;58.90;;;;;;7408164;19;20015;-83
2021/09/08 10:33:23;;;;;;;12.60;7.88;;;31.80;57.50;;;;;;7406559;19;20013;-82
2021/09/08 10:35:53;;;;;;;12.55;7.45;;;32.60;55.20;;;;;;7415167;19;20033;-83
2021/09/08 10:38:23;;;;;;;10.93;7.15;;;32.90;54.30;;;;;;7410233;19;20015;-83
2021/09/08 10:40:54;;;;;;;14.27;8.23;;;33.50;52.70;;;;;;7412550;19;20015;-82
2021/09/08 10:43:30;;;;;;;10.43;8.02;;;33.60;50.80;;;;;;7414927;19;20039;-83
2021/09/08 10:46:04;;;;;;;8.73;7.30;;;33.50;51.00;;;;;;7411279;19;20067;-84
2021/09/08 10:48:38;;;;;;;12.10;7.10;;;33.60;51.70;;;;;;7396225;19;20014;-82
2021/09/08 10:51:09;;;;;;;10.88;7.32;;;33.80;51.00;;;;;;7396117;19;20014;-83
2021/09/08 10:53:40;;;;;;;10.00;6.53;;;34.20;50.90;;;;;;7402367;19;20007;-83
2021/09/08 10:56:12;;;;;;;11.10;7.60;;;34.40;51.10;;;;;;7401871;19;20454;-85
2021/09/08 10:59:01;;;;;;;8.60;6.53;;;35.30;49.60;;;;;;7397733;19;20010;-83
2021/09/08 11:01:34;;;;;;;11.32;7.15;;;35.50;49.20;;;;;;7395491;19;20045;-82
2021/09/08 11:04:03;;;;;;;11.00;6.07;;;36.10;48.30;;;;;;7393719;19;20390;-83
2021/09/08 11:06:38;;;;;;;11.52;6.93;;;37.10;46.90;;;;;;7395293;19;20015;-82
2021/09/08 11:09:14;;;;;;;9.68;6.68;;;37.60;45.60;;;;;;7398648;19;20022;-84
2021/09/08 11:11:56;;;;;;;10.02;6.78;;;37.80;44.50;;;;;;7395376;19;20063;-83
2021/09/08 11:14:50;;;;;;;9.07;6.95;;;37.70;44.40;;;;;;7396339;19;20011;-84
2021/09/08 11:17:31;;;;;;;10.52;6.82;;;37.70;43.60;;;;;;7394823;19;20056;-83
2021/09/08 11:20:03;;;;;;;10.45;7.28;;;38.00;43.00;;;;;;7395713;19;20424;-84
2021/09/08 11:22:35;;;;;;;9.20;7.60;;;38.10;43.10;;;;;;7395733;19;20508;-83
2021/09/08 11:25:07;;;;;;;12.68;7.38;;;37.80;43.20;;;;;;7395158;19;20445;-83
2021/09/08 11:27:37;;;;;;;10.23;7.15;;;38.00;42.80;;;;;;7397990;19;20014;-86
2021/09/08 11:30:09;;;;;;;13.85;7.55;;;38.20;42.70;;;;;;7403704;19;20003;-83
2021/09/08 11:32:55;;;;;;;7.97;6.75;;;39.00;41.70;;;;;;7395286;19;20428;-84
2021/09/08 11:35:53;;;;;;;11.03;6.90;;;39.30;40.70;;;;;;7394946;19;20453;-83
2021/09/08 11:38:25;;;;;;;8.77;6.38;;;39.50;40.20;;;;;;7394367;19;20019;-83
2021/09/08 11:40:59;;;;;;;10.80;7.13;;;39.40;40.20;;;;;;7393984;19;20018;-84
2021/09/08 11:43:36;;;;;;;8.65;6.65;;;39.50;39.60;;;;;;7395652;19;20011;-83
2021/09/08 11:46:14;;;;;;;8.60;6.60;;;38.60;40.70;;;;;;7395597;19;20014;-84
2021/09/08 11:48:51;;;;;;;8.60;7.18;;;38.80;40.70;;;;;;7393700;19;20015;-83
2021/09/08 11:51:24;;;;;;;9.43;6.38;;;38.90;40.30;;;;;;7393748;19;20071;-83
2021/09/08 11:53:56;;;;;;;8.93;6.80;;;38.70;40.40;;;;;;7394664;19;20287;-83
2021/09/08 11:56:27;;;;;;;7.65;6.50;;;39.00;40.30;;;;;;7394472;19;20305;-84
2021/09/08 11:58:59;;;;;;;7.70;6.20;;;39.70;39.50;;;;;;7393363;19;20019;-83
2021/09/08 12:01:35;;;;;;;8.32;6.32;;;39.90;39.60;;;;;;7399024;19;20026;-83
2021/09/08 12:04:09;;;;;;;8.18;6.32;;;40.50;38.50;;;;;;7401472;19;20017;-83
2021/09/08 12:06:58;;;;;;;9.27;6.40;;;40.20;38.20;;;;;;7400540;19;20018;-82
2021/09/08 12:09:31;;;;;;;7.88;6.50;;;40.80;38.00;;;;;;7401586;19;20070;-82
2021/09/08 12:12:05;;;;;;;8.15;6.40;;;40.80;38.00;;;;;;7401563;19;20011;-82
2021/09/08 12:14:43;;;;;;;11.15;6.55;;;40.40;37.80;;;;;;7399668;19;20014;-83
2021/09/08 12:17:24;;;;;;;8.93;6.47;;;40.40;37.90;;;;;;7401759;19;20007;-82
2021/09/08 12:20:06;;;;;;;8.45;6.60;;;40.40;37.50;;;;;;7400519;19;20070;-81
2021/09/08 12:22:39;;;;;;;8.50;6.05;;;40.10;37.70;;;;;;7402155;19;20018;-83
2021/09/08 12:25:15;;;;;;;9.10;6.63;;;39.80;38.20;;;;;;7399997;19;20086;-82
2021/09/08 12:27:48;;;;;;;9.02;6.50;;;40.00;38.10;;;;;;7401457;19;20014;-83
2021/09/08 12:30:26;;;;;;;8.65;6.05;;;41.00;37.30;;;;;;7404417;19;20015;-83
2021/09/08 12:33:02;;;;;;;9.32;5.75;;;41.70;36.70;;;;;;7400553;19;20311;-82
2021/09/08 12:35:47;;;;;;;7.10;5.90;;;41.70;36.60;;;;;;7401098;19;20021;-83
2021/09/08 12:38:34;;;;;;;9.30;5.88;;;41.50;36.80;;;;;;7404802;19;20029;-83
2021/09/08 12:41:17;;;;;;;10.23;6.20;;;41.80;36.60;;;;;;7402015;19;20011;-83
2021/09/08 12:43:50;;;;;;;7.47;5.45;;;41.90;36.60;;;;;;7398788;19;20010;-83
2021/09/08 12:46:19;;;;;;;8.88;5.88;;;42.30;36.30;;;;;;7400297;19;20014;-84
2021/09/08 12:48:49;;;;;;;8.32;6.18;;;42.30;36.10;;;;;;7399827;19;20026;-83
2021/09/08 12:51:25;;;;;;;9.18;7.07;;;42.80;35.90;;;;;;7403294;19;20046;-82
2021/09/08 12:53:58;;;;;;;7.55;5.82;;;43.40;35.40;;;;;;7402590;19;20033;-84